Flugplatz Schwandorf

Für EDPF sind keine METAR/TAF Berichte vorhanden.
Es werden die Flugwettermeldungen vom Flugplatz Hohenfels Army Air Field in 28 km Entfernung angezeigt.

Bericht für ETIH

vom 25.10. um 16:56 UTC

kein Wind

Sichtweite 10 km oder mehr

keine Wolken

Temperatur 6.1°C

Taupunkt 3.6°C

Luftfeuchtigkeit 84%

Luftdruck 1021 hPa

ETIH 251656Z AUTO 00000KT 9999 CLR 06/04 A3016 RMK AO2 SLP237 T00610036
Keine Prognose (TAF) verfügbar.
Impressum